メインページ
METAR-TAF:

METAR-TAF

空港 :

郡山, 日本

福島空港

緯度: 37-24N, 経度: 140-23E, 海抜: 372m

現時点の気象観測

当レポートは58分前の23:00(UTC)に作成
西の風 6kt、西/南西からの間で変化する
気温 -1°C
湿度 59%
気圧 1019 hPa
視程10km以上
高度3000ftの雲は散在している
高度4000ftの千切れ雲あり

METAR: RJSF 182300Z 28006KT 240V360 9999 SCT030 BKN040 M01/M08 Q1019

時間: 08:58 (23:58 UTC)

予報

当レポートは53分前の23:05(UTC)に作成
予報は19日の 00時(UTC)から 20日の 06時(UTC)まで有効
北西の風 13kt
視程10km以上
高度2000ftの雲はほとんどない
高度4000ftの千切れ雲あり
19日の 00時(UTC)から 19日の 06時(UTC)まで一時的に
北西の風 15kt、最大25ktの突風を伴う
19日の 12時(UTC)から 19日の 15時(UTC)まで徐々に
南東の風 4kt
19日の 21時(UTC)から 20日の 00時(UTC)まで徐々に
北/北西の風 10kt

TAF: RJSF 182305Z 1900/2006 32013KT 9999 FEW020 BKN040 TEMPO 1900/1906 32015G25KT BECMG 1912/1915 14004KT BECMG 1921/2000 34010KT

4,000以上の空港の気象観測と天気予報(METAR報とTAF報)

利用可能な観測所は地図上に黄色い丸と赤い丸で示す。

丸の上にカーソルを重ねると観測所名を参照できる。

次にクリックすると気象観測と天気予報を参照できる。

マップの切り替え:黒色「×」印の緑ボタンをクリックして拡大、「-」印の緑ボタンをクリックして縮小、緑色の三角印をクリックして隣りの地図に切り替え


METAR-TAF: